createdAt,value
2022-09-21T04:15:51.861Z,74.40
2022-09-21T04:18:18.791Z,74.88
2022-09-21T04:20:45.352Z,74.30
2022-09-21T04:23:11.811Z,75.67
2022-09-21T04:25:38.250Z,75.38
2022-09-21T04:28:04.734Z,75.11
2022-09-21T04:30:34.323Z,75.58
2022-09-21T04:33:05.025Z,75.10
2022-09-21T04:35:31.583Z,74.28
2022-09-21T04:37:58.017Z,74.65
2022-09-21T04:40:24.579Z,75.39
2022-09-21T04:42:55.091Z,77.52
2022-09-21T04:45:22.815Z,78.17
2022-09-21T04:47:49.638Z,78.56
2022-09-21T04:50:16.394Z,77.73
2022-09-21T04:52:42.869Z,76.26
2022-09-21T04:55:09.428Z,75.94
2022-09-21T04:57:36.197Z,75.53
2022-09-21T05:00:05.492Z,75.83
2022-09-21T05:02:31.993Z,76.40
2022-09-21T05:05:00.510Z,75.66
2022-09-21T05:08:03.373Z,75.46
2022-09-21T05:10:30.461Z,74.94
2022-09-21T05:13:02.990Z,74.71
2022-09-21T05:15:29.536Z,74.79
2022-09-21T05:17:56.028Z,74.69
2022-09-21T05:20:24.526Z,75.01
2022-09-21T05:22:51.021Z,75.42
2022-09-21T05:25:17.635Z,76.18
2022-09-21T05:27:44.051Z,75.82
2022-09-21T05:30:11.264Z,75.39
2022-09-21T05:32:48.814Z,75.00
2022-09-21T05:35:54.145Z,75.70
2022-09-21T05:38:20.912Z,76.06
2022-09-21T05:40:48.197Z,76.89
2022-09-21T05:43:16.565Z,77.05
2022-09-21T05:45:50.227Z,76.57
2022-09-21T05:48:21.024Z,76.90
2022-09-21T05:51:04.091Z,77.62
2022-09-21T05:53:48.487Z,77.78
2022-09-21T05:56:39.620Z,78.04
2022-09-21T05:59:42.987Z,78.91
2022-09-21T06:02:23.448Z,80.39
2022-09-21T06:04:55.870Z,80.65
2022-09-21T06:07:24.936Z,80.33
2022-09-21T06:09:53.807Z,80.06
2022-09-21T06:12:20.338Z,78.96
2022-09-21T06:14:46.775Z,78.44
2022-09-21T06:17:15.310Z,78.47
2022-09-21T06:19:41.740Z,78.56
2022-09-21T06:22:08.200Z,78.98
2022-09-21T06:24:34.814Z,79.07
2022-09-21T06:27:01.319Z,78.96
2022-09-21T06:29:27.817Z,78.39
2022-09-21T06:32:20.992Z,78.83
2022-09-21T06:34:47.481Z,79.08
2022-09-21T06:37:13.934Z,79.03
2022-09-21T06:39:40.347Z,78.91
2022-09-21T06:42:29.966Z,79.57
2022-09-21T06:44:56.368Z,80.24
2022-09-21T06:47:22.905Z,80.59
2022-09-21T06:49:49.315Z,80.31
2022-09-21T06:52:15.734Z,80.35
2022-09-21T06:54:42.391Z,79.82
2022-09-21T06:57:08.914Z,78.83
2022-09-21T06:59:39.063Z,78.91
2022-09-21T07:02:06.135Z,78.90
2022-09-21T07:04:32.660Z,78.84
2022-09-21T07:07:01.819Z,78.62
2022-09-21T07:10:14.577Z,79.14
2022-09-21T07:12:41.681Z,78.50
2022-09-21T07:15:10.176Z,79.02
2022-09-21T07:17:38.766Z,79.39
2022-09-21T07:20:07.759Z,78.92
2022-09-21T07:22:35.096Z,78.89
2022-09-21T07:25:01.624Z,79.72
2022-09-21T07:27:29.582Z,79.49
2022-09-21T07:29:56.120Z,79.20
2022-09-21T07:32:22.657Z,79.61
2022-09-21T07:34:49.067Z,80.53
2022-09-21T07:37:16.160Z,80.31
2022-09-21T07:39:42.701Z,80.55
2022-09-21T07:42:09.213Z,80.23
2022-09-21T07:44:42.959Z,79.71
2022-09-21T07:47:09.416Z,80.53
2022-09-21T07:49:36.291Z,80.44
2022-09-21T07:52:04.988Z,79.81
2022-09-21T07:54:34.853Z,79.60
2022-09-21T07:57:19.981Z,79.82
2022-09-21T07:59:47.500Z,80.20
2022-09-21T08:02:14.070Z,80.59
2022-09-21T08:04:40.611Z,80.37
2022-09-21T08:07:07.046Z,80.46
2022-09-21T08:09:33.530Z,80.38
2022-09-21T08:12:01.420Z,80.12
2022-09-21T08:14:29.342Z,79.65
2022-09-21T08:16:55.808Z,79.40
2022-09-21T08:19:25.813Z,79.06
2022-09-21T08:21:57.137Z,78.52
2022-09-21T08:24:26.490Z,78.67
2022-09-21T08:26:53.033Z,77.69
2022-09-21T08:29:19.710Z,77.10
2022-09-21T08:31:46.880Z,77.06
2022-09-21T08:34:14.133Z,77.03
2022-09-21T08:36:47.197Z,76.71
2022-09-21T08:39:15.324Z,75.98
2022-09-21T08:42:02.300Z,75.48
2022-09-21T08:44:40.485Z,75.15
2022-09-21T08:47:14.923Z,75.56
2022-09-21T08:49:47.484Z,74.86
2022-09-21T08:52:17.905Z,74.75
2022-09-21T08:54:54.688Z,74.36
2022-09-21T08:57:26.524Z,73.31
2022-09-21T08:59:53.039Z,72.85
2022-09-21T09:02:38.877Z,72.23
2022-09-21T09:05:18.383Z,71.94
2022-09-21T09:08:02.263Z,71.47
2022-09-21T09:10:43.006Z,71.08
2022-09-21T09:13:40.066Z,70.92
2022-09-21T09:16:25.543Z,69.46
2022-09-21T09:19:00.264Z,69.47
2022-09-21T09:21:39.285Z,68.88
2022-09-21T09:24:15.032Z,68.75
2022-09-21T09:26:53.000Z,67.10
2022-09-21T09:29:31.819Z,67.41
2022-09-21T09:32:00.970Z,66.51
2022-09-21T09:34:31.673Z,65.96
2022-09-21T09:37:19.713Z,64.56
2022-09-21T09:39:54.154Z,64.05
2022-09-21T09:42:35.942Z,63.96
2022-09-21T09:45:28.503Z,62.22
2022-09-21T09:48:09.919Z,61.73
2022-09-21T09:50:39.651Z,60.98
2022-09-21T09:53:24.466Z,61.58
2022-09-21T09:56:14.848Z,59.89
2022-09-21T09:58:54.826Z,59.52
2022-09-21T10:01:43.525Z,59.92
2022-09-21T10:04:17.598Z,58.66
2022-09-21T10:06:46.833Z,58.02
2022-09-21T10:09:31.613Z,58.39
2022-09-21T10:12:02.343Z,57.65
2022-09-21T10:14:35.015Z,56.13
2022-09-21T10:17:15.971Z,56.32
2022-09-21T10:19:42.780Z,56.23
2022-09-21T10:22:16.804Z,55.29
2022-09-21T10:24:51.388Z,55.22
2022-09-21T10:27:24.632Z,54.07
2022-09-21T10:29:53.259Z,54.77
2022-09-21T10:32:26.439Z,53.49
2022-09-21T10:35:05.967Z,51.78
2022-09-21T10:38:12.186Z,51.36
2022-09-21T10:40:39.805Z,51.16
2022-09-21T10:43:20.489Z,50.93
2022-09-21T10:45:54.911Z,49.31
2022-09-21T10:48:23.530Z,47.74
2022-09-21T10:50:51.732Z,46.74
2022-09-21T10:53:28.462Z,44.90
2022-09-21T10:56:18.645Z,44.10
2022-09-21T10:59:12.623Z,40.40
2022-09-21T11:01:47.165Z,40.51
2022-09-21T11:04:41.601Z,38.35
2022-09-21T11:07:15.212Z,37.68
2022-09-21T11:09:57.164Z,35.29
2022-09-21T11:12:53.782Z,34.44
2022-09-21T11:15:31.010Z,31.70
2022-09-21T11:18:11.416Z,31.54
2022-09-21T11:21:09.284Z,31.13
2022-09-21T11:24:03.115Z,29.72
2022-09-21T11:26:54.605Z,29.30
2022-09-21T11:29:27.640Z,28.25
2022-09-21T11:32:11.661Z,27.58
2022-09-21T11:34:50.256Z,27.40
2022-09-21T11:37:38.915Z,26.54
2022-09-21T11:40:24.547Z,25.22
2022-09-21T11:43:24.140Z,23.92
2022-09-21T11:46:08.421Z,24.19
2022-09-21T11:48:54.055Z,24.29
2022-09-21T11:51:58.759Z,24.58
2022-09-21T11:55:28.428Z,24.80
2022-09-21T11:58:03.084Z,22.97
2022-09-21T12:04:46.221Z,23.06
2022-09-21T12:07:33.561Z,21.49
2022-09-21T12:10:06.257Z,21.52
2022-09-21T12:13:02.730Z,21.86
2022-09-21T12:15:56.093Z,21.70
2022-09-21T12:18:45.501Z,21.03
2022-09-21T12:21:24.024Z,19.96
2022-09-21T12:24:02.676Z,20.22
2022-09-21T12:26:38.973Z,21.16
2022-09-21T12:29:21.609Z,21.80
2022-09-21T12:31:55.000Z,20.13
2022-09-21T12:34:27.114Z,19.39
2022-09-21T12:37:02.543Z,19.87
2022-09-21T12:40:36.542Z,18.99
2022-09-21T12:43:14.018Z,18.75
2022-09-21T12:45:53.602Z,19.42
2022-09-21T12:48:31.773Z,20.56
2022-09-21T12:55:45.424Z,21.40
2022-09-21T13:01:37.644Z,20.25
2022-09-21T13:04:22.278Z,18.67
2022-09-21T13:06:58.509Z,19.88
2022-09-21T13:09:26.942Z,20.66
2022-09-21T13:12:06.894Z,20.24
2022-09-21T13:14:36.251Z,19.74
2022-09-21T13:17:05.874Z,19.22
2022-09-21T13:19:34.602Z,18.40
2022-09-21T13:22:22.731Z,18.73
2022-09-21T13:25:15.031Z,18.24
2022-09-21T13:28:19.627Z,16.96
2022-09-21T13:31:40.323Z,18.64
2022-09-21T13:34:22.004Z,16.94
2022-09-21T13:37:14.315Z,18.05
2022-09-21T13:39:43.748Z,17.27
2022-09-21T13:42:34.730Z,17.86
2022-09-21T13:45:13.566Z,18.07
2022-09-21T13:47:48.026Z,17.03
2022-09-21T13:50:38.585Z,17.12
2022-09-21T13:53:09.846Z,16.34
2022-09-21T13:55:49.074Z,16.64
2022-09-21T13:58:26.997Z,17.18
2022-09-21T14:01:09.877Z,15.62
2022-09-21T14:03:58.346Z,16.44
2022-09-21T14:06:30.891Z,16.55
2022-09-21T14:09:01.222Z,17.20
2022-09-21T14:11:59.180Z,16.37
2022-09-21T14:15:26.867Z,17.19
2022-09-21T14:18:16.284Z,17.59
2022-09-21T14:21:17.627Z,16.91
2022-09-21T14:24:06.177Z,17.16
2022-09-21T14:26:41.737Z,16.57
2022-09-21T14:29:17.590Z,16.68
2022-09-21T14:31:44.393Z,17.19
2022-09-21T14:34:24.614Z,16.90
2022-09-21T14:36:55.942Z,17.01
2022-09-21T14:39:35.033Z,17.08
2022-09-21T14:42:12.399Z,17.07
2022-09-21T14:44:42.470Z,16.79
2022-09-21T14:47:28.581Z,17.87
2022-09-21T14:50:37.551Z,16.98
2022-09-21T14:53:29.161Z,17.38
2022-09-21T14:56:29.952Z,18.47
2022-09-21T14:59:30.636Z,18.62
2022-09-21T15:02:17.572Z,19.10
2022-09-21T15:05:00.868Z,20.42
2022-09-21T15:08:05.804Z,21.04
2022-09-21T15:10:56.828Z,23.93
2022-09-21T15:13:52.425Z,25.57
2022-09-21T15:16:39.114Z,26.27
2022-09-21T15:19:20.536Z,27.53
2022-09-21T15:22:23.305Z,28.52
2022-09-21T15:24:55.641Z,29.80
2022-09-21T15:27:33.046Z,30.17
2022-09-21T15:30:02.026Z,30.32
2022-09-21T15:32:36.836Z,31.44
2022-09-21T15:35:18.532Z,32.30
2022-09-21T15:37:45.855Z,34.17
2022-09-21T15:40:22.759Z,35.22
2022-09-21T15:43:19.432Z,36.20
2022-09-21T15:45:51.644Z,36.55
2022-09-21T15:48:20.583Z,37.56
2022-09-21T15:50:52.879Z,37.23
2022-09-21T15:53:24.677Z,37.09
2022-09-21T15:55:52.538Z,35.76
2022-09-21T15:58:40.420Z,37.19
2022-09-21T16:01:14.222Z,36.87
2022-09-21T16:03:41.982Z,37.93
2022-09-21T16:06:27.898Z,37.86
2022-09-21T16:09:37.389Z,38.30
2022-09-21T16:12:26.380Z,37.29
2022-09-21T16:14:53.882Z,37.33
2022-09-21T16:17:28.876Z,37.15
2022-09-21T16:19:55.329Z,37.06
2022-09-21T16:22:31.056Z,37.03
2022-09-21T16:25:00.755Z,37.38
2022-09-21T16:27:31.874Z,36.37
2022-09-21T16:30:01.124Z,36.86
2022-09-21T16:32:29.836Z,38.21
2022-09-21T16:35:29.304Z,37.52
2022-09-21T16:37:58.635Z,37.24
2022-09-21T16:40:26.872Z,37.17
2022-09-21T16:42:54.215Z,37.21
2022-09-21T16:45:31.600Z,38.23
2022-09-21T16:47:59.413Z,37.96
2022-09-21T16:50:26.311Z,38.36
2022-09-21T16:52:52.774Z,38.75
2022-09-21T16:55:21.161Z,38.70
2022-09-21T16:57:49.115Z,38.18
2022-09-21T17:00:21.965Z,38.81
2022-09-21T17:02:49.450Z,39.14
2022-09-21T17:05:18.000Z,39.52
2022-09-21T17:07:55.592Z,40.25
2022-09-21T17:10:37.125Z,40.25
2022-09-21T17:13:09.017Z,40.72
2022-09-21T17:15:36.805Z,41.36
2022-09-21T17:18:04.002Z,41.37
2022-09-21T17:20:34.744Z,41.35
2022-09-21T17:23:03.025Z,42.21
2022-09-21T17:25:30.939Z,42.51
2022-09-21T17:27:58.264Z,42.04
2022-09-21T17:30:26.616Z,43.12
2022-09-21T17:32:54.069Z,43.56
2022-09-21T17:35:38.028Z,43.93
2022-09-21T17:38:05.609Z,44.03
2022-09-21T17:40:32.698Z,44.79
2022-09-21T17:43:30.277Z,44.80
2022-09-21T17:46:21.725Z,45.01
2022-09-21T17:48:48.514Z,45.07
2022-09-21T17:51:35.142Z,45.39
2022-09-21T17:54:01.817Z,46.50
2022-09-21T17:56:51.330Z,46.85
2022-09-21T17:59:33.144Z,47.32
2022-09-21T18:02:00.969Z,47.67
2022-09-21T18:04:34.823Z,47.90
2022-09-21T18:07:01.543Z,48.45
2022-09-21T18:09:28.275Z,48.60
2022-09-21T18:11:58.125Z,49.01
2022-09-21T18:14:41.849Z,49.36
2022-09-21T18:17:52.335Z,49.70
2022-09-21T18:20:41.666Z,49.65
2022-09-21T18:23:37.374Z,49.71
2022-09-21T18:32:39.594Z,49.78
2022-09-21T18:35:31.317Z,50.32
2022-09-21T18:38:34.616Z,50.28
2022-09-21T18:41:05.341Z,50.25
2022-09-21T18:43:47.405Z,50.30
2022-09-21T18:46:18.777Z,50.50
2022-09-21T18:49:11.559Z,50.47
2022-09-21T18:51:51.772Z,50.46
2022-09-21T18:54:21.365Z,50.56
2022-09-21T18:56:48.715Z,50.61
2022-09-21T18:59:16.395Z,51.15
2022-09-21T19:01:44.797Z,51.79
2022-09-21T19:04:14.213Z,53.15
2022-09-21T19:07:10.426Z,54.77
2022-09-21T19:10:07.585Z,55.75
2022-09-21T19:12:40.126Z,56.66
2022-09-21T19:15:55.589Z,56.47
2022-09-21T19:18:45.165Z,56.35
2022-09-21T19:21:40.225Z,56.18
2022-09-21T19:24:13.279Z,56.48
2022-09-21T19:27:03.315Z,56.63
2022-09-21T19:29:58.476Z,57.29
2022-09-21T19:32:36.385Z,56.70
2022-09-21T19:35:16.815Z,56.77
2022-09-21T19:37:43.776Z,56.52
2022-09-21T19:40:11.031Z,56.22
2022-09-21T19:43:11.403Z,55.78
2022-09-21T19:45:47.300Z,55.97
2022-09-21T19:48:16.025Z,56.11
2022-09-21T19:50:54.445Z,56.58
2022-09-21T19:53:41.068Z,56.80
2022-09-21T19:56:32.853Z,58.27
2022-09-21T19:59:18.584Z,59.04
2022-09-21T20:01:53.546Z,58.71
2022-09-21T20:04:40.554Z,59.29
2022-09-21T20:07:29.999Z,59.18
2022-09-21T20:10:22.875Z,59.73
2022-09-21T20:13:05.351Z,60.11
2022-09-21T20:15:41.652Z,60.05
2022-09-21T20:18:28.567Z,60.26
2022-09-21T20:20:55.236Z,60.71
2022-09-21T20:23:21.895Z,60.39
2022-09-21T20:25:54.576Z,60.35
2022-09-21T20:28:21.958Z,60.46
2022-09-21T20:30:50.055Z,60.65
2022-09-21T20:33:22.759Z,61.20
2022-09-21T20:35:50.533Z,61.82
2022-09-21T20:38:18.395Z,61.00
2022-09-21T20:40:45.535Z,61.57
2022-09-21T20:43:14.143Z,61.72
2022-09-21T20:45:41.070Z,62.04
2022-09-21T20:48:17.545Z,60.81
2022-09-21T20:50:46.676Z,61.77
2022-09-21T20:53:13.486Z,60.97
2022-09-21T20:55:41.158Z,61.33
2022-09-21T20:58:11.452Z,61.51
2022-09-21T21:00:38.120Z,61.03
2022-09-21T21:03:05.222Z,61.15
2022-09-21T21:05:32.032Z,61.02
2022-09-21T21:07:58.442Z,60.67
2022-09-21T21:10:25.407Z,60.65
2022-09-21T21:12:51.854Z,60.93
2022-09-21T21:15:19.498Z,62.46
2022-09-21T21:17:47.753Z,62.34
2022-09-21T21:20:16.201Z,61.84
2022-09-21T21:22:43.874Z,62.45
2022-09-21T21:25:10.981Z,62.74
2022-09-21T21:27:37.758Z,63.57
2022-09-21T21:30:04.999Z,62.84
2022-09-21T21:32:32.492Z,64.28
2022-09-21T21:34:59.247Z,64.18
2022-09-21T21:37:30.007Z,63.24
2022-09-21T21:39:56.995Z,63.08
2022-09-21T21:42:24.850Z,64.40
2022-09-21T21:44:51.521Z,64.09
2022-09-21T21:47:38.679Z,64.74
2022-09-21T21:50:05.395Z,64.27
2022-09-21T21:52:31.839Z,64.77
2022-09-21T21:54:58.294Z,64.91
2022-09-21T21:57:24.748Z,64.83
2022-09-21T21:59:51.197Z,64.70
